sensor_id;sensor_type;location;lat;lon;timestamp;P1;durP1;ratioP1;P2;durP2;ratioP2
7193;SDS011;3638;48.820;9.244;2022-07-29T00:00:14;5.60;;;4.72;;
7193;SDS011;3638;48.820;9.244;2022-07-29T00:02:41;6.07;;;5.22;;
7193;SDS011;3638;48.820;9.244;2022-07-29T00:05:08;7.60;;;5.47;;
7193;SDS011;3638;48.820;9.244;2022-07-29T00:07:38;5.43;;;4.93;;
7193;SDS011;3638;48.820;9.244;2022-07-29T00:10:05;5.97;;;5.10;;
7193;SDS011;3638;48.820;9.244;2022-07-29T00:12:34;6.03;;;5.10;;
7193;SDS011;3638;48.820;9.244;2022-07-29T00:15:00;6.25;;;5.63;;
7193;SDS011;3638;48.820;9.244;2022-07-29T00:17:28;5.53;;;4.95;;
7193;SDS011;3638;48.820;9.244;2022-07-29T00:19:55;5.70;;;5.15;;
7193;SDS011;3638;48.820;9.244;2022-07-29T00:22:22;6.47;;;5.10;;
7193;SDS011;3638;48.820;9.244;2022-07-29T00:24:49;5.70;;;5.18;;
7193;SDS011;3638;48.820;9.244;2022-07-29T00:27:16;7.20;;;5.63;;
7193;SDS011;3638;48.820;9.244;2022-07-29T00:29:44;5.60;;;5.10;;
7193;SDS011;3638;48.820;9.244;2022-07-29T00:32:11;6.10;;;5.25;;
7193;SDS011;3638;48.820;9.244;2022-07-29T00:34:38;5.97;;;5.05;;
7193;SDS011;3638;48.820;9.244;2022-07-29T00:37:23;6.50;;;5.28;;
7193;SDS011;3638;48.820;9.244;2022-07-29T00:39:50;7.20;;;5.15;;
7193;SDS011;3638;48.820;9.244;2022-07-29T00:42:17;5.97;;;5.40;;
7193;SDS011;3638;48.820;9.244;2022-07-29T00:44:45;8.50;;;5.60;;
7193;SDS011;3638;48.820;9.244;2022-07-29T00:47:12;5.82;;;5.22;;
7193;SDS011;3638;48.820;9.244;2022-07-29T00:49:40;7.68;;;6.18;;
7193;SDS011;3638;48.820;9.244;2022-07-29T00:52:08;6.60;;;5.97;;
7193;SDS011;3638;48.820;9.244;2022-07-29T00:54:36;7.45;;;6.53;;
7193;SDS011;3638;48.820;9.244;2022-07-29T00:57:05;7.10;;;6.40;;
7193;SDS011;3638;48.820;9.244;2022-07-29T00:59:33;8.05;;;6.20;;
7193;SDS011;3638;48.820;9.244;2022-07-29T01:02:02;8.43;;;6.78;;
7193;SDS011;3638;48.820;9.244;2022-07-29T01:04:29;8.50;;;6.95;;
7193;SDS011;3638;48.820;9.244;2022-07-29T01:06:56;6.63;;;5.95;;
7193;SDS011;3638;48.820;9.244;2022-07-29T01:09:24;10.05;;;7.22;;
7193;SDS011;3638;48.820;9.244;2022-07-29T01:11:51;7.32;;;6.60;;
7193;SDS011;3638;48.820;9.244;2022-07-29T01:14:19;8.60;;;6.63;;
7193;SDS011;3638;48.820;9.244;2022-07-29T01:16:58;10.10;;;6.65;;
7193;SDS011;3638;48.820;9.244;2022-07-29T01:19:33;5.80;;;5.30;;
7193;SDS011;3638;48.820;9.244;2022-07-29T01:22:25;6.60;;;6.00;;
7193;SDS011;3638;48.820;9.244;2022-07-29T01:25:19;7.13;;;6.10;;
7193;SDS011;3638;48.820;9.244;2022-07-29T01:28:19;7.60;;;6.40;;
7193;SDS011;3638;48.820;9.244;2022-07-29T01:31:28;8.02;;;6.47;;
7193;SDS011;3638;48.820;9.244;2022-07-29T01:34:06;6.70;;;6.07;;
7193;SDS011;3638;48.820;9.244;2022-07-29T01:36:35;6.95;;;6.22;;
7193;SDS011;3638;48.820;9.244;2022-07-29T01:39:11;5.80;;;5.20;;
7193;SDS011;3638;48.820;9.244;2022-07-29T01:41:47;7.25;;;5.88;;
7193;SDS011;3638;48.820;9.244;2022-07-29T01:44:23;6.53;;;5.82;;
7193;SDS011;3638;48.820;9.244;2022-07-29T01:46:57;7.18;;;6.13;;
7193;SDS011;3638;48.820;9.244;2022-07-29T01:49:30;6.30;;;5.70;;
7193;SDS011;3638;48.820;9.244;2022-07-29T01:52:03;6.78;;;6.07;;
7193;SDS011;3638;48.820;9.244;2022-07-29T01:54:35;7.18;;;5.68;;
7193;SDS011;3638;48.820;9.244;2022-07-29T01:57:08;7.43;;;5.65;;
7193;SDS011;3638;48.820;9.244;2022-07-29T01:59:39;7.10;;;6.40;;
7193;SDS011;3638;48.820;9.244;2022-07-29T02:02:08;6.90;;;5.90;;
7193;SDS011;3638;48.820;9.244;2022-07-29T02:04:38;7.22;;;6.03;;
7193;SDS011;3638;48.820;9.244;2022-07-29T02:07:10;6.13;;;5.28;;
7193;SDS011;3638;48.820;9.244;2022-07-29T02:09:42;6.70;;;5.70;;
7193;SDS011;3638;48.820;9.244;2022-07-29T02:12:10;6.38;;;5.57;;
7193;SDS011;3638;48.820;9.244;2022-07-29T02:14:38;6.20;;;5.60;;
7193;SDS011;3638;48.820;9.244;2022-07-29T02:17:11;5.88;;;5.38;;
7193;SDS011;3638;48.820;9.244;2022-07-29T02:19:40;6.38;;;5.78;;
7193;SDS011;3638;48.820;9.244;2022-07-29T02:22:10;5.70;;;5.20;;
7193;SDS011;3638;48.820;9.244;2022-07-29T02:24:38;6.00;;;5.38;;
7193;SDS011;3638;48.820;9.244;2022-07-29T02:27:06;5.78;;;5.28;;
7193;SDS011;3638;48.820;9.244;2022-07-29T02:29:34;6.88;;;5.82;;
7193;SDS011;3638;48.820;9.244;2022-07-29T02:32:05;5.45;;;4.95;;
7193;SDS011;3638;48.820;9.244;2022-07-29T02:34:37;7.68;;;5.15;;
7193;SDS011;3638;48.820;9.244;2022-07-29T02:37:05;7.72;;;6.10;;
7193;SDS011;3638;48.820;9.244;2022-07-29T02:39:34;7.47;;;6.68;;
7193;SDS011;3638;48.820;9.244;2022-07-29T02:42:03;6.20;;;5.60;;
7193;SDS011;3638;48.820;9.244;2022-07-29T02:44:33;6.15;;;5.55;;
7193;SDS011;3638;48.820;9.244;2022-07-29T02:47:02;5.68;;;5.07;;
7193;SDS011;3638;48.820;9.244;2022-07-29T02:49:37;7.05;;;5.63;;
7193;SDS011;3638;48.820;9.244;2022-07-29T02:52:08;5.93;;;5.38;;
7193;SDS011;3638;48.820;9.244;2022-07-29T02:54:41;6.28;;;5.68;;
7193;SDS011;3638;48.820;9.244;2022-07-29T02:57:14;7.03;;;6.03;;
7193;SDS011;3638;48.820;9.244;2022-07-29T02:59:48;6.70;;;6.00;;
7193;SDS011;3638;48.820;9.244;2022-07-29T03:02:20;6.78;;;5.50;;
7193;SDS011;3638;48.820;9.244;2022-07-29T03:04:47;6.50;;;5.90;;
7193;SDS011;3638;48.820;9.244;2022-07-29T03:07:17;7.63;;;5.93;;
7193;SDS011;3638;48.820;9.244;2022-07-29T03:09:46;6.50;;;5.90;;
7193;SDS011;3638;48.820;9.244;2022-07-29T03:12:13;6.28;;;5.68;;
7193;SDS011;3638;48.820;9.244;2022-07-29T03:14:42;6.93;;;5.93;;
7193;SDS011;3638;48.820;9.244;2022-07-29T03:17:09;6.47;;;5.88;;
7193;SDS011;3638;48.820;9.244;2022-07-29T03:19:38;6.95;;;6.30;;
7193;SDS011;3638;48.820;9.244;2022-07-29T03:22:06;7.82;;;7.05;;
7193;SDS011;3638;48.820;9.244;2022-07-29T03:24:33;9.38;;;7.57;;
7193;SDS011;3638;48.820;9.244;2022-07-29T03:27:02;8.07;;;7.25;;
7193;SDS011;3638;48.820;9.244;2022-07-29T03:29:30;9.18;;;6.60;;
7193;SDS011;3638;48.820;9.244;2022-07-29T03:31:57;9.63;;;7.25;;
7193;SDS011;3638;48.820;9.244;2022-07-29T03:34:24;7.90;;;7.10;;
7193;SDS011;3638;48.820;9.244;2022-07-29T03:36:53;8.27;;;7.47;;
7193;SDS011;3638;48.820;9.244;2022-07-29T03:39:21;7.57;;;6.85;;
7193;SDS011;3638;48.820;9.244;2022-07-29T03:41:53;8.13;;;7.32;;
7193;SDS011;3638;48.820;9.244;2022-07-29T03:44:22;7.82;;;6.90;;
7193;SDS011;3638;48.820;9.244;2022-07-29T03:46:52;8.63;;;6.72;;
7193;SDS011;3638;48.820;9.244;2022-07-29T03:49:22;8.15;;;7.35;;
7193;SDS011;3638;48.820;9.244;2022-07-29T03:51:52;7.70;;;6.95;;
7193;SDS011;3638;48.820;9.244;2022-07-29T03:54:19;7.40;;;6.70;;
7193;SDS011;3638;48.820;9.244;2022-07-29T03:56:46;7.70;;;7.00;;
7193;SDS011;3638;48.820;9.244;2022-07-29T03:59:17;7.15;;;6.43;;
7193;SDS011;3638;48.820;9.244;2022-07-29T04:01:45;8.00;;;7.20;;
7193;SDS011;3638;48.820;9.244;2022-07-29T04:04:12;9.05;;;7.80;;
7193;SDS011;3638;48.820;9.244;2022-07-29T04:06:39;8.63;;;7.57;;
7193;SDS011;3638;48.820;9.244;2022-07-29T04:09:09;10.45;;;7.53;;
7193;SDS011;3638;48.820;9.244;2022-07-29T04:11:37;6.90;;;6.20;;
7193;SDS011;3638;48.820;9.244;2022-07-29T04:14:06;8.52;;;6.78;;
7193;SDS011;3638;48.820;9.244;2022-07-29T04:16:33;9.10;;;6.80;;
7193;SDS011;3638;48.820;9.244;2022-07-29T04:19:00;8.05;;;6.85;;
7193;SDS011;3638;48.820;9.244;2022-07-29T04:21:27;7.32;;;6.00;;
7193;SDS011;3638;48.820;9.244;2022-07-29T04:23:54;7.75;;;6.95;;
7193;SDS011;3638;48.820;9.244;2022-07-29T04:26:22;7.93;;;6.00;;
7193;SDS011;3638;48.820;9.244;2022-07-29T04:28:49;6.95;;;6.25;;
7193;SDS011;3638;48.820;9.244;2022-07-29T04:31:16;6.60;;;5.90;;
7193;SDS011;3638;48.820;9.244;2022-07-29T04:33:42;6.85;;;5.78;;
7193;SDS011;3638;48.820;9.244;2022-07-29T04:36:09;6.07;;;5.47;;
7193;SDS011;3638;48.820;9.244;2022-07-29T04:38:37;6.57;;;5.20;;
7193;SDS011;3638;48.820;9.244;2022-07-29T04:41:04;6.18;;;5.57;;
7193;SDS011;3638;48.820;9.244;2022-07-29T04:43:34;6.72;;;5.68;;
7193;SDS011;3638;48.820;9.244;2022-07-29T04:46:02;6.75;;;5.05;;
7193;SDS011;3638;48.820;9.244;2022-07-29T04:48:29;6.43;;;5.28;;
7193;SDS011;3638;48.820;9.244;2022-07-29T04:50:56;7.10;;;4.95;;
7193;SDS011;3638;48.820;9.244;2022-07-29T04:53:23;7.75;;;5.30;;
7193;SDS011;3638;48.820;9.244;2022-07-29T04:55:50;6.18;;;5.57;;
7193;SDS011;3638;48.820;9.244;2022-07-29T04:58:17;5.30;;;4.80;;
7193;SDS011;3638;48.820;9.244;2022-07-29T05:00:45;6.28;;;4.88;;
7193;SDS011;3638;48.820;9.244;2022-07-29T05:03:12;6.40;;;5.03;;
7193;SDS011;3638;48.820;9.244;2022-07-29T05:05:39;6.70;;;5.40;;
7193;SDS011;3638;48.820;9.244;2022-07-29T05:08:07;7.20;;;5.28;;
7193;SDS011;3638;48.820;9.244;2022-07-29T05:10:34;6.78;;;5.35;;
7193;SDS011;3638;48.820;9.244;2022-07-29T05:13:03;5.75;;;4.70;;
7193;SDS011;3638;48.820;9.244;2022-07-29T05:15:31;6.18;;;4.80;;
7193;SDS011;3638;48.820;9.244;2022-07-29T05:18:00;6.13;;;4.25;;
7193;SDS011;3638;48.820;9.244;2022-07-29T05:20:27;5.93;;;4.03;;
7193;SDS011;3638;48.820;9.244;2022-07-29T05:22:55;4.80;;;4.18;;
7193;SDS011;3638;48.820;9.244;2022-07-29T05:25:23;4.93;;;3.95;;
7193;SDS011;3638;48.820;9.244;2022-07-29T05:27:50;5.05;;;4.32;;
7193;SDS011;3638;48.820;9.244;2022-07-29T05:30:16;5.22;;;3.88;;
7193;SDS011;3638;48.820;9.244;2022-07-29T05:32:44;5.03;;;4.28;;
7193;SDS011;3638;48.820;9.244;2022-07-29T05:35:14;6.93;;;4.10;;
7193;SDS011;3638;48.820;9.244;2022-07-29T05:37:41;4.57;;;3.67;;
7193;SDS011;3638;48.820;9.244;2022-07-29T05:40:09;3.88;;;3.58;;
7193;SDS011;3638;48.820;9.244;2022-07-29T05:42:36;4.47;;;3.58;;
7193;SDS011;3638;48.820;9.244;2022-07-29T05:45:03;4.50;;;3.45;;
7193;SDS011;3638;48.820;9.244;2022-07-29T05:47:31;4.00;;;3.47;;
7193;SDS011;3638;48.820;9.244;2022-07-29T05:49:58;4.28;;;3.42;;
7193;SDS011;3638;48.820;9.244;2022-07-29T05:52:27;3.80;;;3.50;;
7193;SDS011;3638;48.820;9.244;2022-07-29T05:54:53;5.47;;;2.92;;
7193;SDS011;3638;48.820;9.244;2022-07-29T05:57:21;4.05;;;3.22;;
7193;SDS011;3638;48.820;9.244;2022-07-29T05:59:49;4.60;;;2.90;;
7193;SDS011;3638;48.820;9.244;2022-07-29T06:02:17;4.13;;;3.50;;
7193;SDS011;3638;48.820;9.244;2022-07-29T06:04:44;4.13;;;2.95;;
7193;SDS011;3638;48.820;9.244;2022-07-29T06:07:11;3.03;;;2.50;;
7193;SDS011;3638;48.820;9.244;2022-07-29T06:09:40;3.17;;;2.97;;
7193;SDS011;3638;48.820;9.244;2022-07-29T06:12:06;5.32;;;3.20;;
7193;SDS011;3638;48.820;9.244;2022-07-29T06:14:34;4.22;;;3.22;;
7193;SDS011;3638;48.820;9.244;2022-07-29T06:17:02;3.63;;;3.05;;
7193;SDS011;3638;48.820;9.244;2022-07-29T06:19:30;3.17;;;2.88;;
7193;SDS011;3638;48.820;9.244;2022-07-29T06:21:57;5.47;;;2.83;;
7193;SDS011;3638;48.820;9.244;2022-07-29T06:24:24;3.92;;;3.08;;
7193;SDS011;3638;48.820;9.244;2022-07-29T06:26:52;3.53;;;2.70;;
7193;SDS011;3638;48.820;9.244;2022-07-29T06:29:19;3.72;;;2.83;;
7193;SDS011;3638;48.820;9.244;2022-07-29T06:31:46;3.33;;;2.58;;
7193;SDS011;3638;48.820;9.244;2022-07-29T06:34:13;4.32;;;3.17;;
7193;SDS011;3638;48.820;9.244;2022-07-29T06:36:40;5.68;;;2.90;;
7193;SDS011;3638;48.820;9.244;2022-07-29T06:39:07;4.72;;;2.58;;
7193;SDS011;3638;48.820;9.244;2022-07-29T06:41:34;3.38;;;2.75;;
7193;SDS011;3638;48.820;9.244;2022-07-29T06:44:02;3.45;;;2.65;;
7193;SDS011;3638;48.820;9.244;2022-07-29T06:46:30;5.65;;;2.65;;
7193;SDS011;3638;48.820;9.244;2022-07-29T06:48:57;4.03;;;3.22;;
7193;SDS011;3638;48.820;9.244;2022-07-29T06:51:26;4.97;;;2.60;;
7193;SDS011;3638;48.820;9.244;2022-07-29T06:53:53;2.90;;;2.58;;
7193;SDS011;3638;48.820;9.244;2022-07-29T06:56:20;3.65;;;2.55;;
7193;SDS011;3638;48.820;9.244;2022-07-29T06:58:47;3.60;;;2.92;;
7193;SDS011;3638;48.820;9.244;2022-07-29T07:01:15;4.53;;;2.90;;
7193;SDS011;3638;48.820;9.244;2022-07-29T07:03:42;5.68;;;2.80;;
7193;SDS011;3638;48.820;9.244;2022-07-29T07:06:09;4.57;;;2.80;;
7193;SDS011;3638;48.820;9.244;2022-07-29T07:08:36;2.67;;;2.42;;
7193;SDS011;3638;48.820;9.244;2022-07-29T07:11:03;3.08;;;2.78;;
7193;SDS011;3638;48.820;9.244;2022-07-29T07:13:31;2.65;;;2.45;;
7193;SDS011;3638;48.820;9.244;2022-07-29T07:15:59;3.83;;;2.60;;
7193;SDS011;3638;48.820;9.244;2022-07-29T07:18:28;2.78;;;2.53;;
7193;SDS011;3638;48.820;9.244;2022-07-29T07:20:55;5.13;;;2.70;;
7193;SDS011;3638;48.820;9.244;2022-07-29T07:23:23;3.60;;;2.50;;
7193;SDS011;3638;48.820;9.244;2022-07-29T07:25:50;4.45;;;2.33;;
7193;SDS011;3638;48.820;9.244;2022-07-29T07:28:17;3.78;;;2.75;;
7193;SDS011;3638;48.820;9.244;2022-07-29T07:30:44;4.68;;;2.70;;
7193;SDS011;3638;48.820;9.244;2022-07-29T07:33:11;4.07;;;2.85;;
7193;SDS011;3638;48.820;9.244;2022-07-29T07:35:40;3.80;;;2.70;;
7193;SDS011;3638;48.820;9.244;2022-07-29T07:38:07;7.35;;;2.70;;
7193;SDS011;3638;48.820;9.244;2022-07-29T07:40:34;3.33;;;2.50;;
7193;SDS011;3638;48.820;9.244;2022-07-29T07:43:02;3.92;;;2.80;;
7193;SDS011;3638;48.820;9.244;2022-07-29T07:45:28;3.20;;;2.90;;
7193;SDS011;3638;48.820;9.244;2022-07-29T07:47:57;2.72;;;2.40;;
7193;SDS011;3638;48.820;9.244;2022-07-29T07:50:24;4.88;;;2.55;;
7193;SDS011;3638;48.820;9.244;2022-07-29T07:52:53;3.10;;;2.80;;
7193;SDS011;3638;48.820;9.244;2022-07-29T07:55:23;3.28;;;2.70;;
7193;SDS011;3638;48.820;9.244;2022-07-29T07:57:50;3.65;;;3.10;;
7193;SDS011;3638;48.820;9.244;2022-07-29T08:00:17;4.32;;;3.10;;
7193;SDS011;3638;48.820;9.244;2022-07-29T08:02:44;4.68;;;3.03;;
7193;SDS011;3638;48.820;9.244;2022-07-29T08:05:11;5.07;;;2.80;;
7193;SDS011;3638;48.820;9.244;2022-07-29T08:07:41;3.28;;;2.97;;
7193;SDS011;3638;48.820;9.244;2022-07-29T08:10:11;4.78;;;3.35;;
7193;SDS011;3638;48.820;9.244;2022-07-29T08:12:39;3.38;;;2.83;;
7193;SDS011;3638;48.820;9.244;2022-07-29T08:15:06;4.13;;;3.10;;
7193;SDS011;3638;48.820;9.244;2022-07-29T08:17:34;3.97;;;3.17;;
7193;SDS011;3638;48.820;9.244;2022-07-29T08:20:01;4.20;;;3.28;;
7193;SDS011;3638;48.820;9.244;2022-07-29T08:22:29;4.63;;;3.33;;
7193;SDS011;3638;48.820;9.244;2022-07-29T08:24:56;3.65;;;3.20;;
7193;SDS011;3638;48.820;9.244;2022-07-29T08:27:24;5.30;;;3.70;;
7193;SDS011;3638;48.820;9.244;2022-07-29T08:29:54;3.30;;;2.90;;
7193;SDS011;3638;48.820;9.244;2022-07-29T08:32:21;5.90;;;3.13;;
7193;SDS011;3638;48.820;9.244;2022-07-29T08:34:48;3.83;;;3.42;;
7193;SDS011;3638;48.820;9.244;2022-07-29T08:37:15;3.38;;;3.05;;
7193;SDS011;3638;48.820;9.244;2022-07-29T08:39:42;4.72;;;3.45;;
7193;SDS011;3638;48.820;9.244;2022-07-29T08:42:08;5.47;;;3.30;;
7193;SDS011;3638;48.820;9.244;2022-07-29T08:44:38;3.80;;;3.45;;
7193;SDS011;3638;48.820;9.244;2022-07-29T08:47:05;3.88;;;3.20;;
7193;SDS011;3638;48.820;9.244;2022-07-29T08:49:33;5.53;;;3.40;;
7193;SDS011;3638;48.820;9.244;2022-07-29T08:52:01;3.42;;;3.20;;
7193;SDS011;3638;48.820;9.244;2022-07-29T08:54:29;4.50;;;3.60;;
7193;SDS011;3638;48.820;9.244;2022-07-29T08:56:56;4.88;;;3.30;;
7193;SDS011;3638;48.820;9.244;2022-07-29T08:59:25;5.82;;;3.40;;
7193;SDS011;3638;48.820;9.244;2022-07-29T09:01:55;3.92;;;3.58;;
7193;SDS011;3638;48.820;9.244;2022-07-29T09:04:25;5.18;;;3.75;;
7193;SDS011;3638;48.820;9.244;2022-07-29T09:06:57;6.25;;;3.58;;
7193;SDS011;3638;48.820;9.244;2022-07-29T09:09:30;5.90;;;3.30;;
7193;SDS011;3638;48.820;9.244;2022-07-29T09:11:59;4.68;;;3.47;;
7193;SDS011;3638;48.820;9.244;2022-07-29T09:14:26;5.45;;;3.30;;
7193;SDS011;3638;48.820;9.244;2022-07-29T09:16:55;4.30;;;3.28;;
7193;SDS011;3638;48.820;9.244;2022-07-29T09:19:23;3.33;;;3.03;;
7193;SDS011;3638;48.820;9.244;2022-07-29T09:21:52;5.30;;;3.70;;
7193;SDS011;3638;48.820;9.244;2022-07-29T09:24:23;6.95;;;4.10;;
7193;SDS011;3638;48.820;9.244;2022-07-29T09:26:52;5.82;;;3.90;;
7193;SDS011;3638;48.820;9.244;2022-07-29T09:29:20;5.85;;;3.40;;
7193;SDS011;3638;48.820;9.244;2022-07-29T09:31:50;5.82;;;3.80;;
7193;SDS011;3638;48.820;9.244;2022-07-29T09:34:23;4.70;;;3.92;;
7193;SDS011;3638;48.820;9.244;2022-07-29T09:36:52;5.47;;;3.35;;
7193;SDS011;3638;48.820;9.244;2022-07-29T09:39:29;5.65;;;3.53;;
7193;SDS011;3638;48.820;9.244;2022-07-29T09:41:58;3.85;;;3.38;;
7193;SDS011;3638;48.820;9.244;2022-07-29T09:44:27;4.45;;;3.35;;
7193;SDS011;3638;48.820;9.244;2022-07-29T09:47:08;6.25;;;4.00;;
7193;SDS011;3638;48.820;9.244;2022-07-29T09:49:51;6.15;;;3.65;;
7193;SDS011;3638;48.820;9.244;2022-07-29T09:52:22;6.25;;;3.88;;
7193;SDS011;3638;48.820;9.244;2022-07-29T09:54:50;4.30;;;3.40;;
7193;SDS011;3638;48.820;9.244;2022-07-29T09:57:22;4.53;;;4.00;;
7193;SDS011;3638;48.820;9.244;2022-07-29T09:59:57;4.70;;;3.95;;
7193;SDS011;3638;48.820;9.244;2022-07-29T10:02:29;4.72;;;3.55;;
7193;SDS011;3638;48.820;9.244;2022-07-29T10:05:00;5.20;;;3.63;;
7193;SDS011;3638;48.820;9.244;2022-07-29T10:07:42;4.28;;;3.88;;
7193;SDS011;3638;48.820;9.244;2022-07-29T10:10:17;4.25;;;3.85;;
7193;SDS011;3638;48.820;9.244;2022-07-29T10:12:50;4.80;;;3.42;;
7193;SDS011;3638;48.820;9.244;2022-07-29T10:15:20;5.70;;;4.13;;
7193;SDS011;3638;48.820;9.244;2022-07-29T10:17:49;4.63;;;4.13;;
7193;SDS011;3638;48.820;9.244;2022-07-29T10:20:18;6.20;;;3.80;;
7193;SDS011;3638;48.820;9.244;2022-07-29T10:22:46;6.15;;;4.25;;
7193;SDS011;3638;48.820;9.244;2022-07-29T10:25:14;5.00;;;4.15;;
7193;SDS011;3638;48.820;9.244;2022-07-29T10:27:41;7.20;;;4.07;;
7193;SDS011;3638;48.820;9.244;2022-07-29T10:30:09;5.63;;;3.55;;
7193;SDS011;3638;48.820;9.244;2022-07-29T10:32:39;6.72;;;3.88;;
7193;SDS011;3638;48.820;9.244;2022-07-29T10:35:29;8.68;;;3.80;;
7193;SDS011;3638;48.820;9.244;2022-07-29T10:41:12;7.25;;;4.25;;
7193;SDS011;3638;48.820;9.244;2022-07-29T10:43:59;6.30;;;4.35;;
7193;SDS011;3638;48.820;9.244;2022-07-29T10:46:34;8.60;;;4.57;;
7193;SDS011;3638;48.820;9.244;2022-07-29T10:49:06;4.53;;;4.13;;
7193;SDS011;3638;48.820;9.244;2022-07-29T10:51:52;7.47;;;3.90;;
7193;SDS011;3638;48.820;9.244;2022-07-29T10:54:37;7.88;;;4.30;;
7193;SDS011;3638;48.820;9.244;2022-07-29T10:57:11;5.43;;;4.28;;
7193;SDS011;3638;48.820;9.244;2022-07-29T10:59:45;6.40;;;4.57;;
7193;SDS011;3638;48.820;9.244;2022-07-29T11:05:17;5.68;;;4.57;;
7193;SDS011;3638;48.820;9.244;2022-07-29T11:10:47;5.60;;;4.82;;
7193;SDS011;3638;48.820;9.244;2022-07-29T11:16:12;6.80;;;4.50;;
7193;SDS011;3638;48.820;9.244;2022-07-29T11:21:47;8.32;;;5.53;;
7193;SDS011;3638;48.820;9.244;2022-07-29T11:24:17;7.15;;;5.55;;
7193;SDS011;3638;48.820;9.244;2022-07-29T11:29:52;11.88;;;7.15;;
7193;SDS011;3638;48.820;9.244;2022-07-29T11:32:21;12.20;;;8.02;;
7193;SDS011;3638;48.820;9.244;2022-07-29T11:37:40;12.07;;;8.50;;
7193;SDS011;3638;48.820;9.244;2022-07-29T11:40:10;10.68;;;8.23;;
7193;SDS011;3638;48.820;9.244;2022-07-29T11:42:48;9.77;;;7.35;;
7193;SDS011;3638;48.820;9.244;2022-07-29T11:45:17;9.05;;;6.65;;
7193;SDS011;3638;48.820;9.244;2022-07-29T11:47:53;10.45;;;6.63;;
7193;SDS011;3638;48.820;9.244;2022-07-29T11:50:33;9.55;;;5.65;;
7193;SDS011;3638;48.820;9.244;2022-07-29T11:53:03;6.57;;;4.65;;
7193;SDS011;3638;48.820;9.244;2022-07-29T11:55:38;5.68;;;4.45;;
7193;SDS011;3638;48.820;9.244;2022-07-29T11:58:07;5.43;;;3.92;;
7193;SDS011;3638;48.820;9.244;2022-07-29T12:00:35;6.80;;;3.70;;
7193;SDS011;3638;48.820;9.244;2022-07-29T12:03:04;5.38;;;4.38;;
7193;SDS011;3638;48.820;9.244;2022-07-29T12:05:34;6.20;;;4.30;;
7193;SDS011;3638;48.820;9.244;2022-07-29T12:08:07;5.82;;;4.60;;
7193;SDS011;3638;48.820;9.244;2022-07-29T12:10:41;5.35;;;4.68;;
7193;SDS011;3638;48.820;9.244;2022-07-29T12:13:09;5.15;;;4.13;;
7193;SDS011;3638;48.820;9.244;2022-07-29T12:15:37;7.55;;;4.28;;
7193;SDS011;3638;48.820;9.244;2022-07-29T12:18:10;4.63;;;4.15;;
7193;SDS011;3638;48.820;9.244;2022-07-29T12:20:40;7.97;;;3.90;;
7193;SDS011;3638;48.820;9.244;2022-07-29T12:23:08;9.25;;;3.03;;
7193;SDS011;3638;48.820;9.244;2022-07-29T12:25:37;4.35;;;3.50;;
7193;SDS011;3638;48.820;9.244;2022-07-29T12:28:07;5.55;;;2.40;;
7193;SDS011;3638;48.820;9.244;2022-07-29T12:30:36;3.30;;;2.72;;
7193;SDS011;3638;48.820;9.244;2022-07-29T12:33:10;3.53;;;2.70;;
7193;SDS011;3638;48.820;9.244;2022-07-29T12:35:42;3.88;;;2.40;;
7193;SDS011;3638;48.820;9.244;2022-07-29T12:38:12;2.40;;;2.10;;
7193;SDS011;3638;48.820;9.244;2022-07-29T12:40:40;3.33;;;2.47;;
7193;SDS011;3638;48.820;9.244;2022-07-29T12:43:11;4.38;;;2.70;;
7193;SDS011;3638;48.820;9.244;2022-07-29T12:45:42;3.42;;;3.13;;
7193;SDS011;3638;48.820;9.244;2022-07-29T12:48:11;3.10;;;2.80;;
7193;SDS011;3638;48.820;9.244;2022-07-29T12:50:52;5.68;;;3.08;;
7193;SDS011;3638;48.820;9.244;2022-07-29T12:53:21;4.85;;;3.20;;
7193;SDS011;3638;48.820;9.244;2022-07-29T12:55:49;5.15;;;3.15;;
7193;SDS011;3638;48.820;9.244;2022-07-29T12:58:27;3.22;;;2.92;;
7193;SDS011;3638;48.820;9.244;2022-07-29T13:01:06;3.88;;;2.92;;
7193;SDS011;3638;48.820;9.244;2022-07-29T13:03:49;6.95;;;3.30;;
7193;SDS011;3638;48.820;9.244;2022-07-29T13:06:32;6.38;;;3.80;;
7193;SDS011;3638;48.820;9.244;2022-07-29T13:09:05;5.95;;;3.60;;
7193;SDS011;3638;48.820;9.244;2022-07-29T13:11:35;5.05;;;3.17;;
7193;SDS011;3638;48.820;9.244;2022-07-29T13:14:06;5.00;;;3.03;;
7193;SDS011;3638;48.820;9.244;2022-07-29T13:16:34;4.25;;;3.25;;
7193;SDS011;3638;48.820;9.244;2022-07-29T13:19:03;4.57;;;3.13;;
7193;SDS011;3638;48.820;9.244;2022-07-29T13:21:32;3.85;;;2.97;;
7193;SDS011;3638;48.820;9.244;2022-07-29T13:23:59;3.67;;;3.17;;
7193;SDS011;3638;48.820;9.244;2022-07-29T13:26:26;4.45;;;3.30;;
7193;SDS011;3638;48.820;9.244;2022-07-29T13:28:53;4.30;;;3.50;;
7193;SDS011;3638;48.820;9.244;2022-07-29T13:31:22;4.00;;;3.47;;
7193;SDS011;3638;48.820;9.244;2022-07-29T13:33:49;7.13;;;4.30;;
7193;SDS011;3638;48.820;9.244;2022-07-29T13:36:16;6.18;;;4.28;;
7193;SDS011;3638;48.820;9.244;2022-07-29T13:38:43;8.73;;;4.90;;
7193;SDS011;3638;48.820;9.244;2022-07-29T13:41:10;10.75;;;5.60;;
7193;SDS011;3638;48.820;9.244;2022-07-29T13:43:36;8.13;;;4.85;;
7193;SDS011;3638;48.820;9.244;2022-07-29T13:46:03;7.03;;;4.88;;
7193;SDS011;3638;48.820;9.244;2022-07-29T13:48:31;5.82;;;5.07;;
7193;SDS011;3638;48.820;9.244;2022-07-29T13:50:58;6.82;;;5.15;;
7193;SDS011;3638;48.820;9.244;2022-07-29T13:53:25;7.05;;;4.38;;
7193;SDS011;3638;48.820;9.244;2022-07-29T13:55:52;7.18;;;4.93;;
7193;SDS011;3638;48.820;9.244;2022-07-29T13:58:20;5.55;;;5.05;;
7193;SDS011;3638;48.820;9.244;2022-07-29T14:00:47;9.00;;;5.35;;
7193;SDS011;3638;48.820;9.244;2022-07-29T14:03:13;11.50;;;5.25;;
7193;SDS011;3638;48.820;9.244;2022-07-29T14:05:42;6.90;;;5.40;;
7193;SDS011;3638;48.820;9.244;2022-07-29T14:08:09;7.63;;;4.90;;
7193;SDS011;3638;48.820;9.244;2022-07-29T14:10:35;5.63;;;5.03;;
7193;SDS011;3638;48.820;9.244;2022-07-29T14:13:02;6.43;;;4.72;;
7193;SDS011;3638;48.820;9.244;2022-07-29T14:15:29;5.63;;;4.80;;
7193;SDS011;3638;48.820;9.244;2022-07-29T14:17:56;6.85;;;4.78;;
7193;SDS011;3638;48.820;9.244;2022-07-29T14:20:23;5.55;;;4.75;;
7193;SDS011;3638;48.820;9.244;2022-07-29T14:22:51;4.80;;;4.40;;
7193;SDS011;3638;48.820;9.244;2022-07-29T14:25:18;5.30;;;4.85;;
7193;SDS011;3638;48.820;9.244;2022-07-29T14:27:45;5.70;;;5.20;;
7193;SDS011;3638;48.820;9.244;2022-07-29T14:30:12;5.55;;;5.00;;
7193;SDS011;3638;48.820;9.244;2022-07-29T14:32:39;7.18;;;5.60;;
7193;SDS011;3638;48.820;9.244;2022-07-29T14:35:06;6.20;;;5.60;;
7193;SDS011;3638;48.820;9.244;2022-07-29T14:37:35;6.22;;;5.13;;
7193;SDS011;3638;48.820;9.244;2022-07-29T14:40:03;7.50;;;5.90;;
7193;SDS011;3638;48.820;9.244;2022-07-29T14:42:31;9.30;;;5.68;;
7193;SDS011;3638;48.820;9.244;2022-07-29T14:44:58;7.10;;;5.93;;
7193;SDS011;3638;48.820;9.244;2022-07-29T14:47:25;7.13;;;5.90;;
7193;SDS011;3638;48.820;9.244;2022-07-29T14:49:52;9.45;;;5.95;;
7193;SDS011;3638;48.820;9.244;2022-07-29T14:52:19;8.02;;;6.43;;
7193;SDS011;3638;48.820;9.244;2022-07-29T14:54:46;7.60;;;6.55;;
7193;SDS011;3638;48.820;9.244;2022-07-29T14:57:14;7.80;;;5.75;;
7193;SDS011;3638;48.820;9.244;2022-07-29T14:59:41;7.60;;;6.30;;
7193;SDS011;3638;48.820;9.244;2022-07-29T15:02:08;7.88;;;6.10;;
7193;SDS011;3638;48.820;9.244;2022-07-29T15:04:35;5.90;;;5.30;;
7193;SDS011;3638;48.820;9.244;2022-07-29T15:07:02;7.15;;;5.57;;
7193;SDS011;3638;48.820;9.244;2022-07-29T15:09:29;7.70;;;6.07;;
7193;SDS011;3638;48.820;9.244;2022-07-29T15:11:56;9.20;;;5.97;;
7193;SDS011;3638;48.820;9.244;2022-07-29T15:14:24;8.15;;;5.72;;
7193;SDS011;3638;48.820;9.244;2022-07-29T15:16:51;8.18;;;6.03;;
7193;SDS011;3638;48.820;9.244;2022-07-29T15:19:18;6.88;;;5.78;;
7193;SDS011;3638;48.820;9.244;2022-07-29T15:21:45;7.50;;;5.10;;
7193;SDS011;3638;48.820;9.244;2022-07-29T15:24:12;6.78;;;6.07;;
7193;SDS011;3638;48.820;9.244;2022-07-29T15:26:39;9.73;;;5.88;;
7193;SDS011;3638;48.820;9.244;2022-07-29T15:29:07;7.88;;;5.82;;
7193;SDS011;3638;48.820;9.244;2022-07-29T15:31:35;6.80;;;6.00;;
7193;SDS011;3638;48.820;9.244;2022-07-29T15:34:02;9.32;;;5.93;;
7193;SDS011;3638;48.820;9.244;2022-07-29T15:36:29;6.72;;;5.55;;
7193;SDS011;3638;48.820;9.244;2022-07-29T15:38:57;7.95;;;5.60;;
7193;SDS011;3638;48.820;9.244;2022-07-29T15:41:23;6.45;;;5.85;;
7193;SDS011;3638;48.820;9.244;2022-07-29T15:43:50;9.95;;;5.80;;
7193;SDS011;3638;48.820;9.244;2022-07-29T15:46:18;7.03;;;6.07;;
7193;SDS011;3638;48.820;9.244;2022-07-29T15:49:05;8.40;;;5.95;;